createdAt,value
2019-05-13T08:53:26.394Z,600
2019-05-13T08:53:27.004Z,600
2019-05-13T08:53:28.575Z,600
2019-05-13T08:53:47.939Z,600
2019-05-13T08:54:06.920Z,400
2019-05-13T08:54:27.093Z,400
2019-05-13T08:54:46.349Z,400
2019-05-13T08:55:06.454Z,800
2019-05-13T08:55:26.438Z,800
2019-05-13T08:55:46.442Z,700
2019-05-13T08:56:07.008Z,700
2019-05-13T08:56:26.428Z,700
2019-05-13T08:56:48.026Z,700
2019-05-13T13:39:26.568Z,600
2019-05-13T13:39:28.707Z,600
2019-05-13T13:39:32.910Z,600
2019-05-13T13:39:47.260Z,600
2019-05-13T13:40:06.676Z,600
2019-05-13T13:40:34.197Z,600
2019-05-13T13:40:46.668Z,600
2019-05-13T13:41:06.648Z,600
2019-05-13T13:41:27.119Z,600
2019-05-13T13:41:46.593Z,600
2019-05-13T13:42:06.605Z,600
2019-05-13T13:42:26.791Z,600
2019-05-13T13:42:46.547Z,600
2019-05-13T13:43:06.664Z,600
2019-05-13T13:43:26.988Z,600
2019-05-13T13:43:48.412Z,600
2019-05-13T13:44:08.607Z,600
2019-05-13T13:44:27.145Z,600
2019-05-13T13:44:47.297Z,600
2019-05-13T13:45:09.328Z,600
2019-05-13T13:45:27.218Z,500
2019-05-13T13:46:55.249Z,600
2019-05-13T13:46:56.238Z,600
2019-05-13T13:46:57.059Z,600
2019-05-13T13:47:14.645Z,600
2019-05-13T13:47:33.191Z,700
2019-05-13T13:47:59.014Z,700
2019-05-13T13:48:13.198Z,700
2019-05-13T13:48:33.182Z,700
2019-05-13T13:48:54.699Z,700
2019-05-13T13:49:12.799Z,700
2019-05-13T13:49:34.828Z,700
2019-05-13T13:49:53.140Z,600
2019-05-13T13:50:11.886Z,600
2019-05-13T13:50:33.517Z,600
2019-05-13T13:50:55.555Z,600
2019-05-13T13:51:13.989Z,600
2019-05-13T13:51:33.998Z,600
2019-05-13T13:51:50.120Z,600
2019-05-13T13:52:14.082Z,600
2019-05-13T13:52:33.462Z,600
2019-05-13T13:52:52.729Z,600
2019-05-13T13:53:13.852Z,600
2019-05-13T13:53:33.208Z,500
2019-05-13T13:53:56.060Z,500
2019-05-13T13:54:12.530Z,500
2019-05-13T13:54:33.544Z,500
2019-05-13T13:54:58.727Z,500
2019-05-13T13:55:15.278Z,500
2019-05-13T13:55:32.048Z,500
2019-05-13T13:55:55.496Z,500
2019-05-13T13:56:14.342Z,500
2019-05-13T13:56:32.586Z,500
2019-05-13T13:56:54.339Z,500
2019-05-13T13:57:14.245Z,500
2019-05-13T13:57:32.384Z,500
2019-05-13T13:57:51.268Z,500
2019-05-13T13:58:14.113Z,500
2019-05-13T13:58:32.590Z,500
2019-05-13T13:58:50.151Z,500
2019-05-13T13:59:13.698Z,500
2019-05-13T13:59:35.554Z,500
2019-05-13T14:01:27.636Z,600
2019-05-13T14:01:28.332Z,600
2019-05-13T14:01:29.829Z,600
2019-05-13T14:01:42.770Z,600
2019-05-13T14:02:05.105Z,600
2019-05-13T14:02:25.047Z,600
2019-05-13T14:02:43.065Z,600
2019-05-13T14:03:06.335Z,600
2019-05-13T14:03:20.886Z,600
2019-05-13T14:03:45.915Z,700
2019-05-13T14:04:03.657Z,700
2019-05-13T14:04:20.893Z,700
2019-05-13T14:04:42.860Z,700
2019-05-13T14:05:05.496Z,700
2019-05-13T14:05:24.545Z,700
2019-05-13T14:07:42.253Z,600
2019-05-13T14:07:43.354Z,600
2019-05-13T14:07:44.203Z,600
2019-05-13T14:08:01.617Z,600
2019-05-13T14:08:21.625Z,600
2019-05-13T14:08:38.561Z,600
2019-05-13T14:09:00.889Z,600
2019-05-13T14:09:22.524Z,600
2019-05-13T14:09:40.895Z,600
2019-05-13T14:10:05.964Z,600
2019-05-13T14:10:21.987Z,600
2019-05-13T14:10:41.743Z,600
2019-05-13T14:11:02.047Z,600
2019-05-13T14:11:19.272Z,600
2019-05-13T14:11:52.060Z,600
2019-05-13T14:12:10.714Z,600
2019-05-13T14:12:28.664Z,600
2019-05-13T14:12:48.663Z,500
2019-05-13T14:13:08.604Z,500
2019-05-13T14:13:29.270Z,500
2019-05-13T14:13:51.577Z,500
2019-05-13T14:14:08.672Z,500
2019-05-13T14:14:28.539Z,500
2019-05-13T14:14:52.825Z,500
2019-05-13T14:15:11.265Z,500
2019-05-13T14:15:31.116Z,500
2019-05-13T14:15:49.369Z,500
2019-05-13T14:16:22.262Z,500
2019-05-13T14:16:35.930Z,500
2019-05-13T14:16:51.612Z,500
2019-05-13T14:17:11.395Z,500
2019-05-13T14:17:31.230Z,500
2019-05-13T14:17:51.567Z,500
2019-05-13T14:18:11.249Z,500
2019-05-13T14:18:30.970Z,500
2019-05-13T14:18:52.062Z,500
2019-05-13T14:19:09.907Z,500
2019-05-13T14:19:32.167Z,300
2019-05-13T14:19:48.644Z,400
2019-05-13T14:20:08.534Z,400
2019-05-13T14:20:32.744Z,400
2019-05-13T14:20:49.540Z,400
2019-05-13T14:21:08.548Z,300
2019-05-13T14:21:28.666Z,300
2019-05-13T14:21:48.606Z,300
2019-05-13T14:22:12.506Z,300
2019-05-13T14:22:32.256Z,300
2019-05-13T14:22:48.669Z,300
2019-05-13T14:23:08.682Z,400
2019-05-13T14:23:28.600Z,400
2019-05-13T14:23:48.654Z,400
2019-05-13T14:24:08.677Z,400
2019-05-13T14:24:28.558Z,400
2019-05-13T14:24:48.569Z,400
2019-05-13T14:25:10.941Z,400
2019-05-13T14:25:29.511Z,400
2019-05-13T14:25:48.662Z,400
2019-05-13T14:26:08.614Z,400
2019-05-13T14:26:29.020Z,500
2019-05-13T14:26:48.552Z,400
2019-05-13T14:27:08.648Z,400
2019-05-13T14:27:31.430Z,400
2019-05-13T14:27:48.619Z,400
2019-05-13T14:28:08.635Z,400
2019-05-13T14:28:28.657Z,400
2019-05-13T14:28:48.665Z,400
2019-05-13T14:29:54.557Z,500
2019-05-13T14:29:54.951Z,500
2019-05-13T14:30:08.667Z,600
2019-05-13T14:30:30.780Z,600
2019-05-13T14:30:48.569Z,600
2019-05-13T14:31:08.660Z,600
2019-05-13T14:31:28.629Z,500
2019-05-13T14:31:51.968Z,500
2019-05-13T14:32:08.561Z,400
2019-05-13T14:32:28.628Z,400
2019-05-13T14:32:48.645Z,400
2019-05-13T14:33:10.159Z,400
2019-05-13T14:33:32.593Z,400
2019-05-13T14:33:51.935Z,400
2019-05-13T14:34:11.421Z,400
2019-05-13T14:34:31.524Z,500
2019-05-13T14:34:49.304Z,500
2019-05-13T14:35:08.962Z,600
2019-05-13T14:35:28.611Z,600
2019-05-13T14:35:48.644Z,600
2019-05-13T14:36:08.653Z,600
2019-05-13T14:36:29.454Z,600
2019-05-13T14:36:51.604Z,600
2019-05-13T14:37:11.647Z,600
2019-05-13T14:37:31.777Z,600
2019-05-13T14:37:51.839Z,500
2019-05-13T14:38:08.655Z,500
2019-05-13T14:38:28.664Z,500
2019-05-13T14:38:48.546Z,400
2019-05-13T14:39:11.993Z,400
2019-05-13T14:39:31.816Z,500
2019-05-13T14:39:50.149Z,600
2019-05-13T14:40:08.666Z,600
2019-05-13T14:40:31.742Z,500
2019-05-13T14:40:51.672Z,300
2019-05-13T14:41:09.948Z,300
2019-05-13T14:41:31.220Z,200
2019-05-13T14:41:50.997Z,300
2019-05-13T14:42:11.326Z,200
2019-05-13T14:42:31.912Z,200
2019-05-13T14:42:52.550Z,100
2019-05-13T14:43:12.070Z,100
2019-05-13T14:43:31.725Z,100
2019-05-13T14:43:51.445Z,100
2019-05-13T14:44:08.620Z,100
2019-05-13T14:44:32.426Z,100
2019-05-13T14:44:52.055Z,200
2019-05-13T14:45:12.122Z,200
2019-05-13T14:45:31.757Z,300
2019-05-13T14:45:48.618Z,300
2019-05-13T14:46:09.309Z,300
2019-05-13T14:46:46.957Z,300
2019-05-13T14:46:48.592Z,300
2019-05-13T14:47:08.634Z,300
2019-05-13T14:47:28.614Z,300
2019-05-13T14:47:48.537Z,300
2019-05-13T14:48:09.283Z,300
2019-05-13T14:48:28.655Z,200
2019-05-13T14:48:48.553Z,200
2019-05-13T14:49:08.677Z,200
2019-05-13T14:49:28.675Z,200
2019-05-13T14:49:52.069Z,200
2019-05-13T14:50:11.528Z,200
2019-05-13T14:50:31.872Z,200
2019-05-13T14:50:52.228Z,200
2019-05-13T14:51:08.546Z,200
2019-05-13T14:51:28.515Z,200
2019-05-13T14:51:48.542Z,200
2019-05-13T14:52:11.887Z,200
2019-05-13T14:52:28.650Z,200
2019-05-13T14:52:48.642Z,200
2019-05-13T14:53:08.648Z,200
2019-05-13T14:53:28.629Z,200
2019-05-13T14:53:51.957Z,200
2019-05-13T14:54:10.878Z,200
2019-05-13T14:54:31.413Z,200
2019-05-13T14:54:48.668Z,200
2019-05-13T14:55:09.234Z,200
2019-05-13T14:55:28.695Z,200
2019-05-13T14:55:48.625Z,200
2019-05-13T14:56:09.567Z,200
2019-05-13T14:56:32.292Z,300
2019-05-13T14:56:48.640Z,300
2019-05-13T14:57:11.824Z,300
2019-05-13T14:57:29.356Z,300
2019-05-13T14:57:52.628Z,200
2019-05-13T14:58:10.793Z,200
2019-05-13T14:58:32.415Z,300
2019-05-13T14:58:52.001Z,300
2019-05-13T14:59:11.645Z,200
2019-05-13T14:59:28.532Z,100
2019-05-13T14:59:51.142Z,100
2019-05-13T15:00:09.291Z,200
2019-05-13T15:00:32.402Z,200
2019-05-13T15:01:10.125Z,200
2019-05-13T15:01:22.992Z,100
2019-05-13T15:01:28.610Z,100
2019-05-13T15:01:48.632Z,200
2019-05-13T15:02:11.894Z,200
2019-05-13T15:02:28.555Z,200
2019-05-13T15:02:48.649Z,200
2019-05-13T15:03:08.552Z,200
2019-05-13T15:03:29.351Z,200
2019-05-13T15:03:51.318Z,100
2019-05-13T15:04:12.154Z,100
2019-05-13T15:04:28.653Z,100
2019-05-13T15:04:48.617Z,100
2019-05-13T15:05:08.614Z,100
2019-05-13T15:05:31.358Z,2.2250738585072014e-308
2019-05-13T15:05:48.635Z,2.2250738585072014e-308
2019-05-13T15:06:11.916Z,2.2250738585072014e-308
2019-05-13T15:06:28.682Z,2.2250738585072014e-308
2019-05-13T15:06:48.612Z,100
2019-05-13T15:07:08.637Z,100
2019-05-13T15:07:28.563Z,100
2019-05-13T15:07:48.668Z,100
2019-05-13T15:08:08.534Z,100
2019-05-13T15:08:28.623Z,100
2019-05-13T15:08:48.653Z,100
2019-05-13T15:09:08.642Z,100
2019-05-13T15:09:31.377Z,100
2019-05-13T15:09:51.463Z,100
2019-05-13T15:10:08.642Z,100
2019-05-13T15:10:31.467Z,100
2019-05-13T15:10:49.274Z,200
2019-05-13T15:11:09.396Z,200
2019-05-13T15:11:28.759Z,200
2019-05-13T15:11:52.723Z,200
2019-05-13T15:12:08.649Z,200
2019-05-13T15:12:32.240Z,200
2019-05-13T15:12:52.332Z,200
2019-05-13T15:13:09.283Z,200
2019-05-13T15:13:31.304Z,300
2019-05-13T15:13:51.130Z,300
2019-05-13T15:14:11.684Z,300
2019-05-13T15:14:32.571Z,200
2019-05-13T15:14:52.237Z,300
2019-05-13T15:15:09.234Z,300
2019-05-13T15:15:31.130Z,300
2019-05-13T15:15:51.613Z,300
2019-05-13T15:16:08.633Z,300
2019-05-13T15:16:29.445Z,300
2019-05-13T15:17:01.925Z,300
2019-05-13T15:17:08.878Z,300
2019-05-13T15:17:28.519Z,300
2019-05-13T15:17:48.636Z,300
2019-05-13T15:18:08.665Z,300
2019-05-13T15:18:28.619Z,300
2019-05-13T15:18:48.635Z,300
2019-05-13T15:19:11.332Z,400
2019-05-13T15:19:28.667Z,400
2019-05-13T15:19:48.798Z,400
2019-05-13T15:20:08.600Z,300
2019-05-13T15:20:33.061Z,400
2019-05-13T15:20:52.905Z,400
2019-05-13T15:21:12.077Z,400
2019-05-13T15:21:32.029Z,400
2019-05-13T15:21:49.267Z,400
2019-05-13T15:22:11.381Z,400
2019-05-13T15:22:31.802Z,300
2019-05-13T15:22:51.830Z,300
2019-05-13T15:23:11.884Z,300
2019-05-13T15:23:28.692Z,300
2019-05-13T15:23:51.464Z,300
2019-05-13T15:24:12.296Z,200
2019-05-13T15:24:32.280Z,200
2019-05-13T15:24:48.705Z,200
2019-05-13T15:25:08.555Z,100
2019-05-13T15:25:28.643Z,100
2019-05-13T15:25:48.643Z,100
2019-05-13T15:26:11.634Z,100
2019-05-13T15:26:30.955Z,200
2019-05-13T15:26:51.658Z,200
2019-05-13T15:27:10.387Z,200
2019-05-13T15:27:31.374Z,200
2019-05-13T15:27:52.411Z,200
2019-05-13T15:28:11.686Z,300
2019-05-13T15:28:28.627Z,300
2019-05-13T15:28:48.674Z,300
2019-05-13T15:29:11.199Z,300
2019-05-13T15:29:30.723Z,300
2019-05-13T15:29:50.934Z,300
2019-05-13T15:30:18.105Z,300
2019-05-13T15:30:31.519Z,300
2019-05-13T15:30:51.506Z,300
2019-05-13T15:31:10.867Z,300
2019-05-13T15:31:30.920Z,300
2019-05-13T15:31:51.507Z,300
2019-05-13T15:32:08.677Z,300
2019-05-13T15:32:28.633Z,300
2019-05-13T15:32:52.494Z,300
2019-05-13T15:33:09.222Z,300
2019-05-13T15:33:32.583Z,300
2019-05-13T15:33:49.230Z,300
2019-05-13T15:34:08.652Z,300
2019-05-13T15:34:28.654Z,300
2019-05-13T15:34:48.643Z,300
2019-05-13T15:35:10.760Z,300
2019-05-13T15:35:32.075Z,200
2019-05-13T15:35:51.757Z,200
2019-05-13T15:36:13.495Z,200
2019-05-13T15:36:30.917Z,200
2019-05-13T15:36:51.541Z,300
2019-05-13T15:37:11.233Z,300
2019-05-13T15:37:32.114Z,300
2019-05-13T15:37:48.671Z,300
2019-05-13T15:38:08.620Z,300
2019-05-13T15:38:28.622Z,300
2019-05-13T15:38:51.931Z,300
2019-05-13T15:39:11.264Z,300
2019-05-13T15:39:31.530Z,300
2019-05-13T15:39:51.822Z,300
2019-05-13T15:40:11.660Z,300
2019-05-13T15:40:30.614Z,300
2019-05-13T15:40:48.638Z,300
2019-05-13T15:41:14.789Z,300
2019-05-13T15:41:29.958Z,300
2019-05-13T15:41:48.617Z,300
2019-05-13T15:42:08.665Z,300
2019-05-13T15:42:28.671Z,300
2019-05-13T15:42:51.223Z,300
2019-05-13T15:43:11.490Z,300
2019-05-13T15:43:31.824Z,300
2019-05-13T15:43:52.656Z,300
2019-05-13T15:44:11.458Z,300
2019-05-13T15:44:32.287Z,300
2019-05-13T15:44:52.396Z,300
2019-05-13T15:45:12.174Z,300
2019-05-13T15:45:28.603Z,300
2019-05-13T15:45:48.570Z,300
2019-05-13T15:46:08.873Z,300
2019-05-13T15:46:32.271Z,300
2019-05-13T15:46:48.666Z,300
2019-05-13T15:47:20.115Z,300
2019-05-13T15:47:28.533Z,300
2019-05-13T15:47:48.625Z,300
2019-05-13T15:48:08.685Z,300
2019-05-13T15:48:28.654Z,300
2019-05-13T15:48:51.481Z,300
2019-05-13T15:49:12.325Z,300
2019-05-13T15:49:29.248Z,300
2019-05-13T15:49:48.680Z,300
2019-05-13T15:50:08.766Z,200
2019-05-13T15:50:28.590Z,200
2019-05-13T15:50:51.230Z,200
2019-05-13T15:51:08.555Z,100
2019-05-13T15:51:28.662Z,100
2019-05-13T15:51:50.122Z,100
2019-05-13T15:52:11.625Z,100
2019-05-13T15:52:30.964Z,200
2019-05-13T15:52:48.624Z,200
2019-05-13T15:53:12.639Z,300
2019-05-13T15:53:28.654Z,300
2019-05-13T15:53:51.835Z,300
2019-05-13T15:54:08.533Z,300
2019-05-13T15:54:28.670Z,300
2019-05-13T15:54:52.150Z,300
2019-05-13T15:55:08.635Z,300
2019-05-13T15:55:28.558Z,300
2019-05-13T15:55:51.636Z,200
2019-05-13T15:56:08.541Z,200
2019-05-13T15:56:32.303Z,200
2019-05-13T15:56:48.621Z,200
2019-05-13T15:57:11.877Z,300
2019-05-13T15:57:28.632Z,300
2019-05-13T15:57:48.612Z,300
2019-05-13T15:58:08.662Z,300
2019-05-13T15:58:41.271Z,300
2019-05-13T15:58:48.645Z,300
2019-05-13T15:59:09.026Z,300
2019-05-13T15:59:28.636Z,300
2019-05-13T15:59:48.658Z,300
2019-05-13T16:00:08.637Z,300
2019-05-13T16:00:28.562Z,300
2019-05-13T16:00:52.299Z,300
2019-05-13T16:01:08.643Z,300
2019-05-13T16:01:28.628Z,300
2019-05-13T16:01:48.636Z,300
2019-05-13T16:02:08.664Z,300
2019-05-13T16:02:28.546Z,300
2019-05-13T16:02:49.097Z,300
2019-05-13T16:03:08.652Z,400
2019-05-13T16:03:29.275Z,400
2019-05-13T16:03:48.634Z,300
2019-05-13T16:04:08.675Z,300
2019-05-13T16:04:28.677Z,300
2019-05-13T16:05:00.371Z,300
2019-05-13T16:05:08.613Z,300
2019-05-13T16:05:31.260Z,300
2019-05-13T16:05:51.397Z,300
2019-05-13T16:06:09.502Z,300
2019-05-13T16:06:31.984Z,300
2019-05-13T16:06:52.094Z,300
2019-05-13T16:07:12.204Z,300
2019-05-13T16:07:30.293Z,300
2019-05-13T16:07:48.684Z,300
2019-05-13T16:08:09.176Z,400
2019-05-13T16:08:31.759Z,400
2019-05-13T16:08:52.510Z,400
2019-05-13T16:09:11.643Z,400
2019-05-13T16:09:31.382Z,400
2019-05-13T16:09:48.643Z,300
2019-05-13T16:10:11.075Z,300
2019-05-13T16:10:28.651Z,300
2019-05-13T16:10:48.675Z,300
2019-05-13T16:11:08.646Z,300
2019-05-13T16:11:28.665Z,300
2019-05-13T16:11:52.215Z,300
2019-05-13T16:12:11.970Z,300
2019-05-13T16:12:28.641Z,300
2019-05-13T16:12:48.541Z,300
2019-05-13T16:13:11.520Z,300
2019-05-13T16:13:28.744Z,300
2019-05-13T16:13:51.733Z,300
2019-05-13T16:14:08.655Z,300
2019-05-13T16:14:31.184Z,300
2019-05-13T16:14:50.836Z,300
2019-05-13T16:15:14.779Z,300
2019-05-13T16:15:29.295Z,300
2019-05-13T16:15:48.588Z,300
2019-05-13T16:16:08.674Z,400
2019-05-13T16:16:28.918Z,300
2019-05-13T16:16:48.659Z,300
2019-05-13T16:17:12.208Z,300
2019-05-13T16:17:41.367Z,300
2019-05-13T16:17:48.517Z,300
2019-05-13T16:18:11.636Z,300
2019-05-13T16:18:28.589Z,300
2019-05-13T16:18:50.732Z,300
2019-05-13T16:19:11.188Z,300
2019-05-13T16:19:32.282Z,300
2019-05-13T16:19:53.060Z,300
2019-05-13T16:20:09.406Z,300
2019-05-13T16:20:32.105Z,300
2019-05-13T16:20:48.618Z,300
2019-05-13T16:21:11.430Z,400
2019-05-13T16:21:28.679Z,300
2019-05-13T16:21:49.170Z,400
2019-05-13T16:22:11.530Z,400
2019-05-13T16:22:31.301Z,300
2019-05-13T16:22:48.653Z,300
2019-05-13T16:23:08.676Z,300
2019-05-13T16:23:32.244Z,300
2019-05-13T16:23:51.310Z,300
2019-05-13T16:24:11.613Z,300
2019-05-13T16:24:28.550Z,200
2019-05-13T16:24:52.093Z,200
2019-05-13T16:25:08.645Z,200
2019-05-13T16:25:31.895Z,200
2019-05-13T16:25:51.883Z,100
2019-05-13T16:26:11.616Z,100
2019-05-13T16:26:28.570Z,100
2019-05-13T16:26:48.626Z,200
2019-05-13T16:27:08.553Z,200
2019-05-13T16:27:31.240Z,200
2019-05-13T16:27:51.407Z,200
2019-05-13T16:28:10.391Z,200
2019-05-13T16:28:32.833Z,100
2019-05-13T16:28:52.199Z,200
2019-05-13T16:29:09.756Z,200
2019-05-13T16:29:28.568Z,200
2019-05-13T16:29:48.640Z,200
2019-05-13T16:30:08.669Z,200
2019-05-13T16:30:30.854Z,200
2019-05-13T16:30:51.303Z,200
2019-05-13T16:31:11.747Z,200
2019-05-13T16:31:28.618Z,200
2019-05-13T16:31:48.662Z,300
2019-05-13T16:32:12.070Z,300
2019-05-13T16:32:28.663Z,300
2019-05-13T16:32:51.887Z,300
2019-05-13T16:33:11.403Z,300
2019-05-13T16:33:31.501Z,300
2019-05-13T16:33:48.669Z,300
2019-05-13T16:34:08.551Z,300
2019-05-13T16:34:31.854Z,300
2019-05-13T16:34:48.662Z,300
2019-05-13T16:35:10.132Z,300
2019-05-13T16:35:31.841Z,300
2019-05-13T16:35:48.659Z,300
2019-05-13T16:36:12.777Z,300
2019-05-13T16:36:28.659Z,300
2019-05-13T16:36:49.140Z,300
2019-05-13T16:37:08.621Z,300
2019-05-13T16:37:31.355Z,300
2019-05-13T16:37:50.904Z,300
2019-05-13T16:38:11.248Z,300
2019-05-13T16:38:32.470Z,300
2019-05-13T16:38:48.666Z,300
2019-05-13T16:39:08.683Z,300
2019-05-13T16:39:31.810Z,300
2019-05-13T16:39:51.730Z,300
2019-05-13T16:40:11.809Z,300
2019-05-13T16:40:36.253Z,300
2019-05-13T16:40:51.356Z,300
2019-05-13T16:41:08.655Z,300
2019-05-13T16:41:31.573Z,300
2019-05-13T16:41:51.637Z,300
2019-05-13T16:42:12.188Z,300
2019-05-13T16:42:31.681Z,300
2019-05-13T16:42:51.300Z,300
2019-05-13T16:43:08.555Z,300
2019-05-13T16:43:31.921Z,300
2019-05-13T16:43:50.795Z,300
2019-05-13T16:44:11.850Z,300
2019-05-13T16:44:31.191Z,400
2019-05-13T16:44:51.541Z,400
2019-05-13T16:45:12.466Z,300
2019-05-13T16:45:31.479Z,300
2019-05-13T16:45:48.998Z,300
2019-05-13T16:46:08.599Z,300
2019-05-13T16:46:31.528Z,200
2019-05-13T16:46:51.223Z,200
2019-05-13T16:47:09.148Z,300
2019-05-13T16:47:28.632Z,300
2019-05-13T16:47:57.789Z,300
2019-05-13T16:48:08.652Z,300
2019-05-13T16:48:28.656Z,300
2019-05-13T16:48:48.621Z,300
2019-05-13T16:49:08.615Z,300
2019-05-13T16:49:31.811Z,300
2019-05-13T16:49:51.284Z,300
2019-05-13T16:50:10.941Z,300
2019-05-13T16:50:31.113Z,300
2019-05-13T16:50:48.556Z,300
2019-05-13T16:51:12.740Z,300
2019-05-13T16:51:31.699Z,300
2019-05-13T16:51:51.726Z,300
2019-05-13T16:52:11.460Z,400
2019-05-13T16:52:31.331Z,400
2019-05-13T16:52:51.054Z,300
2019-05-13T16:53:11.788Z,300
2019-05-13T16:53:31.234Z,300
2019-05-13T16:53:52.222Z,300
2019-05-13T16:54:10.089Z,300
2019-05-13T16:54:28.653Z,300
2019-05-13T16:54:48.640Z,200
2019-05-13T16:55:12.780Z,200
2019-05-13T16:55:32.726Z,200
2019-05-13T16:55:51.212Z,300
2019-05-13T16:56:08.606Z,300
2019-05-13T16:56:33.417Z,300
2019-05-13T16:56:51.633Z,300
2019-05-13T16:57:09.169Z,300
2019-05-13T16:57:32.414Z,300
2019-05-13T16:57:51.158Z,200
2019-05-13T16:58:12.514Z,300
2019-05-13T16:58:32.366Z,300
2019-05-13T16:58:52.120Z,300
2019-05-13T16:59:09.507Z,300
2019-05-13T16:59:28.665Z,300
2019-05-13T16:59:48.568Z,300
2019-05-13T17:00:08.556Z,300
2019-05-13T17:00:31.707Z,300
2019-05-13T17:00:48.647Z,300
2019-05-13T17:01:08.636Z,300
2019-05-13T17:01:30.489Z,300
2019-05-13T17:01:51.075Z,200
2019-05-13T17:02:08.668Z,200
2019-05-13T17:02:28.628Z,200
2019-05-13T17:02:51.631Z,200
2019-05-13T17:03:11.450Z,100
2019-05-13T17:03:31.876Z,100
2019-05-13T17:03:48.546Z,100
2019-05-13T17:04:08.555Z,100
2019-05-13T17:04:32.096Z,100
2019-05-13T17:04:48.619Z,100
2019-05-13T17:05:08.539Z,100
2019-05-13T17:05:33.050Z,100
2019-05-13T17:05:51.213Z,100
2019-05-13T17:06:08.667Z,100
2019-05-13T17:06:28.660Z,100
2019-05-13T17:06:52.973Z,100
2019-05-13T17:07:08.656Z,100
2019-05-13T17:07:31.756Z,100
2019-05-13T17:07:51.380Z,100
2019-05-13T17:08:09.535Z,100
2019-05-13T17:08:31.782Z,200
2019-05-13T17:08:51.600Z,200
2019-05-13T17:09:11.303Z,200
2019-05-13T17:09:32.260Z,300
2019-05-13T17:09:52.086Z,300
2019-05-13T17:10:08.624Z,300
2019-05-13T17:10:28.665Z,300
2019-05-13T17:10:51.378Z,300
2019-05-13T17:11:12.016Z,300
2019-05-13T17:11:32.097Z,300
2019-05-13T17:11:49.130Z,200
2019-05-13T17:12:09.224Z,200
2019-05-13T17:12:31.695Z,200
2019-05-13T17:12:52.314Z,200
2019-05-13T17:13:08.690Z,200
2019-05-13T17:13:31.360Z,300
2019-05-13T17:13:51.287Z,300
2019-05-13T17:14:09.688Z,200
2019-05-13T17:14:28.626Z,200
2019-05-13T17:14:52.191Z,200
2019-05-13T17:15:11.273Z,200
2019-05-13T17:15:31.152Z,300
2019-05-13T17:15:48.669Z,300
2019-05-13T17:16:11.503Z,300
2019-05-13T17:16:31.714Z,200
2019-05-13T17:16:51.823Z,200
2019-05-13T17:17:11.858Z,200
2019-05-13T17:17:31.686Z,100
2019-05-13T17:17:48.544Z,100
2019-05-13T17:18:14.732Z,200
2019-05-13T17:18:32.313Z,200
2019-05-13T17:18:48.605Z,200
2019-05-13T17:19:08.655Z,200
2019-05-13T17:19:31.730Z,100
2019-05-13T17:19:53.150Z,100
2019-05-13T17:20:12.446Z,100
2019-05-13T17:20:32.036Z,100
2019-05-13T17:20:52.010Z,200
2019-05-13T17:21:08.533Z,300
2019-05-13T17:21:28.540Z,300
2019-05-13T17:21:48.540Z,200
2019-05-13T17:22:08.679Z,200
2019-05-13T17:22:31.583Z,200
2019-05-13T17:22:51.035Z,200
2019-05-13T17:23:12.386Z,300
2019-05-13T17:23:29.257Z,300
2019-05-13T17:23:48.676Z,200
2019-05-13T17:24:08.608Z,200
2019-05-13T17:24:28.616Z,200
2019-05-13T17:24:48.641Z,200
2019-05-13T17:25:08.647Z,200
2019-05-13T17:25:30.104Z,200
2019-05-13T17:25:51.962Z,200
2019-05-13T17:26:11.561Z,200
2019-05-13T17:26:32.650Z,200
2019-05-13T17:26:49.500Z,200
2019-05-13T17:27:12.102Z,200
2019-05-13T17:27:29.276Z,200
2019-05-13T17:27:51.334Z,200
2019-05-13T17:28:08.644Z,200
2019-05-13T17:28:31.577Z,200
2019-05-13T17:28:51.884Z,200
2019-05-13T17:29:08.626Z,200
2019-05-13T17:29:31.522Z,200
2019-05-13T17:29:51.361Z,200
2019-05-13T17:30:11.229Z,200
2019-05-13T17:30:31.937Z,200
2019-05-13T17:30:48.640Z,200
2019-05-13T17:31:11.415Z,200
2019-05-13T17:31:28.662Z,200
2019-05-13T17:31:48.630Z,200
2019-05-13T17:32:11.572Z,300
2019-05-13T17:32:32.004Z,300
2019-05-13T17:32:51.423Z,300
2019-05-13T17:33:11.565Z,300
2019-05-13T17:33:28.663Z,200
2019-05-13T17:33:51.936Z,200
2019-05-13T17:34:08.671Z,100
2019-05-13T17:34:31.781Z,100
2019-05-13T17:34:52.054Z,100
2019-05-13T17:35:11.302Z,100
2019-05-13T17:35:28.647Z,100
2019-05-13T17:35:50.166Z,100
2019-05-13T17:36:12.269Z,100
2019-05-13T17:36:32.310Z,2.2250738585072014e-308
2019-05-13T17:36:51.862Z,2.2250738585072014e-308
2019-05-13T17:37:11.569Z,100
2019-05-13T17:37:31.266Z,100
2019-05-13T17:37:51.075Z,100
2019-05-13T17:38:17.644Z,100
2019-05-13T17:38:28.534Z,100
2019-05-13T17:38:48.602Z,100
2019-05-13T17:39:08.639Z,100
2019-05-13T17:39:28.655Z,100
2019-05-13T17:39:48.653Z,100
2019-05-13T17:40:08.668Z,100
2019-05-13T17:40:31.321Z,100
2019-05-13T17:40:52.924Z,100
2019-05-13T17:41:12.172Z,100
2019-05-13T17:41:28.649Z,100
2019-05-13T17:41:48.643Z,100
2019-05-13T17:42:09.211Z,100
2019-05-13T17:42:31.934Z,100
2019-05-13T17:42:48.689Z,100
2019-05-13T17:43:08.526Z,100
2019-05-13T17:43:28.659Z,100
2019-05-13T17:43:51.789Z,100
2019-05-13T17:44:12.258Z,100
2019-05-13T17:44:31.515Z,100
2019-05-13T17:44:48.606Z,200
2019-05-13T17:45:11.248Z,200
2019-05-13T17:45:31.251Z,200
2019-05-13T17:45:52.277Z,200
2019-05-13T17:46:08.614Z,200
2019-05-13T17:46:32.565Z,200
2019-05-13T17:46:48.689Z,200
2019-05-13T17:47:11.139Z,200
2019-05-13T17:47:28.620Z,200
2019-05-13T17:47:48.640Z,200
2019-05-13T17:48:24.956Z,100
2019-05-13T17:48:33.309Z,100
2019-05-13T17:48:49.223Z,200
2019-05-13T17:49:08.707Z,200
2019-05-13T17:49:28.661Z,200
2019-05-13T17:49:48.851Z,100
2019-05-13T17:50:08.625Z,100
2019-05-13T17:50:28.640Z,100
2019-05-13T17:50:49.139Z,200
2019-05-13T17:51:10.161Z,200
2019-05-13T17:51:29.609Z,200
2019-05-13T17:51:51.735Z,100
2019-05-13T17:52:11.478Z,100
2019-05-13T17:52:30.854Z,100
2019-05-13T17:52:48.654Z,100
2019-05-13T17:53:11.166Z,200
2019-05-13T17:53:28.630Z,200
2019-05-13T17:53:51.989Z,100
2019-05-13T17:54:11.781Z,100
2019-05-13T17:54:31.789Z,100
2019-05-13T17:54:51.189Z,100
2019-05-13T17:55:11.700Z,100
2019-05-13T17:55:29.654Z,100
2019-05-13T17:55:51.129Z,100
2019-05-13T17:56:11.292Z,100
2019-05-13T17:56:32.260Z,100
2019-05-13T17:56:48.613Z,100
2019-05-13T17:57:08.675Z,100
2019-05-13T17:57:32.028Z,100
2019-05-13T17:57:49.306Z,200
2019-05-13T17:58:11.410Z,200
2019-05-13T17:58:32.554Z,100
2019-05-13T17:58:51.409Z,100
2019-05-13T17:59:11.172Z,100
2019-05-13T17:59:28.546Z,100
2019-05-13T17:59:48.655Z,2.2250738585072014e-308
2019-05-13T18:00:08.639Z,100
2019-05-13T18:00:32.221Z,100
2019-05-13T18:00:51.560Z,100
2019-05-13T18:01:12.032Z,2.2250738585072014e-308
2019-05-13T18:01:28.590Z,2.2250738585072014e-308
2019-05-13T18:01:48.547Z,2.2250738585072014e-308
2019-05-13T18:02:11.906Z,2.2250738585072014e-308
2019-05-13T18:02:31.482Z,2.2250738585072014e-308
2019-05-13T18:02:51.234Z,2.2250738585072014e-308
2019-05-13T18:03:11.170Z,2.2250738585072014e-308
2019-05-13T18:03:31.380Z,2.2250738585072014e-308
2019-05-13T18:03:48.634Z,2.2250738585072014e-308
2019-05-13T18:04:11.717Z,2.2250738585072014e-308
2019-05-13T18:04:28.656Z,2.2250738585072014e-308
2019-05-13T18:04:48.664Z,2.2250738585072014e-308
2019-05-13T18:05:08.640Z,2.2250738585072014e-308
2019-05-13T18:05:31.453Z,2.2250738585072014e-308
2019-05-13T18:05:51.454Z,2.2250738585072014e-308
2019-05-13T18:06:11.444Z,2.2250738585072014e-308
2019-05-13T18:06:29.768Z,2.2250738585072014e-308
2019-05-13T18:06:49.261Z,2.2250738585072014e-308